RYR57MU EKCH-EGSS
Flight info
| Callsign | RYR57MU |
|---|---|
| Flight time | 1h 32m |
| Altitude | 34000 |
| Route | LANGO DCT KESUR DCT LONAM DCT BINBO DCT AKOKO N866 KUBAX Z150 MEGEL |
| Aircraft | B738/M-SDE2E3FGHIRWXY/LB1 |
Departure
| Time | 2026-05-07 21:39 |
|---|---|
| Airport | Copenhagen Kastrup Airport (EKCH) |
Arrival
| Time | 2026-05-07 23:12 |
|---|---|
| Airport | London Stansted Airport (EGSS) |
| Time | Latitude | Longitude | Altitude | Speed | Heading |
|---|---|---|---|---|---|
| 2026-05-07 21:11 | 55.62515 | 12.65573 | 23 ft | 0 kts | 24° |
| 2026-05-07 21:30 | 55.62513 | 12.65571 | 23 ft | 3 kts | 24° |
| 2026-05-07 21:30 | 55.62489 | 12.65553 | 28 ft | 4 kts | 23° |
| 2026-05-07 21:31 | 55.62467 | 12.65536 | 27 ft | 4 kts | 11° |
| 2026-05-07 21:31 | 55.62450 | 12.65546 | 27 ft | 4 kts | 294° |
| 2026-05-07 21:31 | 55.62442 | 12.65591 | 25 ft | 4 kts | 275° |
| 2026-05-07 21:31 | 55.62442 | 12.65618 | 26 ft | 0 kts | 269° |
| 2026-05-07 21:33 | 55.62442 | 12.65612 | 26 ft | 2 kts | 269° |
| 2026-05-07 21:33 | 55.62441 | 12.65550 | 26 ft | 9 kts | 269° |
| 2026-05-07 21:34 | 55.62440 | 12.65400 | 23 ft | 16 kts | 269° |
| 2026-05-07 21:34 | 55.62434 | 12.65234 | 23 ft | 10 kts | 242° |
| 2026-05-07 21:34 | 55.62356 | 12.65204 | 23 ft | 15 kts | 179° |
| 2026-05-07 21:34 | 55.62232 | 12.65195 | 23 ft | 20 kts | 193° |
| 2026-05-07 21:35 | 55.62119 | 12.65072 | 24 ft | 21 kts | 214° |
| 2026-05-07 21:35 | 55.61977 | 12.64911 | 22 ft | 27 kts | 213° |
| 2026-05-07 21:35 | 55.61813 | 12.64724 | 23 ft | 29 kts | 212° |
| 2026-05-07 21:35 | 55.61648 | 12.64537 | 23 ft | 27 kts | 212° |
| 2026-05-07 21:36 | 55.61491 | 12.64364 | 23 ft | 26 kts | 212° |
| 2026-05-07 21:36 | 55.61348 | 12.64194 | 24 ft | 24 kts | 214° |
| 2026-05-07 21:36 | 55.61213 | 12.64037 | 23 ft | 23 kts | 213° |
| 2026-05-07 21:36 | 55.61082 | 12.63888 | 23 ft | 22 kts | 212° |
| 2026-05-07 21:37 | 55.60957 | 12.63739 | 24 ft | 21 kts | 216° |
| 2026-05-07 21:37 | 55.60833 | 12.63596 | 23 ft | 21 kts | 212° |
| 2026-05-07 21:37 | 55.60712 | 12.63463 | 25 ft | 20 kts | 212° |
| 2026-05-07 21:37 | 55.60603 | 12.63313 | 22 ft | 20 kts | 221° |
| 2026-05-07 21:38 | 55.60487 | 12.63239 | 22 ft | 19 kts | 156° |
| 2026-05-07 21:38 | 55.60408 | 12.63391 | 20 ft | 16 kts | 118° |
| 2026-05-07 21:38 | 55.60468 | 12.63550 | 20 ft | 28 kts | 42° |
| 2026-05-07 21:38 | 55.60786 | 12.64042 | 22 ft | 92 kts | 41° |
| 2026-05-07 21:39 | 55.61410 | 12.65005 | 28 ft | 144 kts | 39° |
| 2026-05-07 21:39 | 55.62209 | 12.66250 | 333 ft | 160 kts | 40° |
| 2026-05-07 21:39 | 55.63027 | 12.67480 | 1026 ft | 160 kts | 40° |
| 2026-05-07 21:39 | 55.63877 | 12.68786 | 1597 ft | 166 kts | 40° |
| 2026-05-07 21:40 | 55.64818 | 12.70231 | 1857 ft | 192 kts | 40° |
| 2026-05-07 21:40 | 55.65879 | 12.71855 | 2191 ft | 207 kts | 39° |
| 2026-05-07 21:40 | 55.66997 | 12.73537 | 2647 ft | 215 kts | 39° |
| 2026-05-07 21:40 | 55.68209 | 12.75352 | 2841 ft | 241 kts | 39° |
| 2026-05-07 21:41 | 55.69533 | 12.77332 | 3317 ft | 253 kts | 40° |
| 2026-05-07 21:41 | 55.70624 | 12.79799 | 3947 ft | 262 kts | 67° |
| 2026-05-07 21:41 | 55.70857 | 12.83012 | 4633 ft | 266 kts | 99° |
| 2026-05-07 21:41 | 55.70130 | 12.85989 | 5442 ft | 267 kts | 130° |
| 2026-05-07 21:42 | 55.68640 | 12.87889 | 6210 ft | 267 kts | 157° |
| 2026-05-07 21:42 | 55.66894 | 12.89031 | 6963 ft | 268 kts | 160° |
| 2026-05-07 21:42 | 55.65117 | 12.90143 | 7634 ft | 273 kts | 159° |
| 2026-05-07 21:42 | 55.63312 | 12.91279 | 8338 ft | 277 kts | 159° |
| 2026-05-07 21:43 | 55.61429 | 12.92053 | 9041 ft | 283 kts | 179° |
| 2026-05-07 21:43 | 55.59505 | 12.91285 | 9786 ft | 289 kts | 204° |
| 2026-05-07 21:43 | 55.57874 | 12.89181 | 10467 ft | 296 kts | 224° |
| 2026-05-07 21:43 | 55.56408 | 12.86449 | 10689 ft | 318 kts | 226° |
| 2026-05-07 21:44 | 55.54865 | 12.83478 | 10968 ft | 336 kts | 226° |
| 2026-05-07 21:44 | 55.53265 | 12.80409 | 11561 ft | 342 kts | 229° |
| 2026-05-07 21:44 | 55.51981 | 12.76861 | 12284 ft | 346 kts | 246° |
| 2026-05-07 21:44 | 55.51327 | 12.72779 | 13088 ft | 348 kts | 263° |
| 2026-05-07 21:45 | 55.51133 | 12.68514 | 13890 ft | 350 kts | 266° |
| 2026-05-07 21:45 | 55.50997 | 12.64204 | 14578 ft | 354 kts | 266° |
| 2026-05-07 21:45 | 55.50865 | 12.59854 | 15298 ft | 357 kts | 266° |
| 2026-05-07 21:45 | 55.50722 | 12.55467 | 16045 ft | 359 kts | 266° |
| 2026-05-07 21:46 | 55.50568 | 12.51054 | 16816 ft | 361 kts | 266° |
| 2026-05-07 21:46 | 55.50405 | 12.46615 | 17534 ft | 365 kts | 266° |
| 2026-05-07 21:46 | 55.50236 | 12.42120 | 18222 ft | 369 kts | 266° |
| 2026-05-07 21:46 | 55.50061 | 12.37588 | 18853 ft | 372 kts | 266° |
| 2026-05-07 21:47 | 55.49879 | 12.33015 | 19449 ft | 376 kts | 266° |
| 2026-05-07 21:47 | 55.49654 | 12.28406 | 20038 ft | 379 kts | 261° |
| 2026-05-07 21:47 | 55.48957 | 12.23901 | 20609 ft | 384 kts | 248° |
| 2026-05-07 21:47 | 55.47740 | 12.19700 | 21194 ft | 387 kts | 236° |
| 2026-05-07 21:48 | 55.46166 | 12.15900 | 21755 ft | 391 kts | 232° |
| 2026-05-07 21:48 | 55.44500 | 12.12089 | 22306 ft | 395 kts | 232° |
| 2026-05-07 21:48 | 55.42808 | 12.08246 | 22844 ft | 399 kts | 232° |
| 2026-05-07 21:48 | 55.41111 | 12.04369 | 23388 ft | 402 kts | 232° |
| 2026-05-07 21:49 | 55.39405 | 12.00442 | 23892 ft | 406 kts | 232° |
| 2026-05-07 21:49 | 55.37691 | 11.96475 | 24331 ft | 409 kts | 233° |
| 2026-05-07 21:49 | 55.35969 | 11.92477 | 24771 ft | 412 kts | 233° |
| 2026-05-07 21:49 | 55.34232 | 11.88446 | 25203 ft | 415 kts | 233° |
| 2026-05-07 21:50 | 55.32483 | 11.84388 | 25624 ft | 418 kts | 233° |
| 2026-05-07 21:50 | 55.30722 | 11.80308 | 26040 ft | 421 kts | 232° |
| 2026-05-07 21:50 | 55.28946 | 11.76195 | 26460 ft | 424 kts | 232° |
| 2026-05-07 21:50 | 55.27152 | 11.72058 | 26854 ft | 427 kts | 232° |
| 2026-05-07 21:51 | 55.25349 | 11.67903 | 27243 ft | 430 kts | 233° |
| 2026-05-07 21:51 | 55.23632 | 11.63580 | 27616 ft | 433 kts | 236° |
| 2026-05-07 21:51 | 55.21984 | 11.59152 | 28030 ft | 436 kts | 237° |
| 2026-05-07 21:51 | 55.20351 | 11.54664 | 28416 ft | 438 kts | 237° |
| 2026-05-07 21:52 | 55.19268 | 11.51679 | 28654 ft | 440 kts | 237° |
| 2026-05-07 21:52 | 55.17617 | 11.47148 | 29017 ft | 443 kts | 237° |
| 2026-05-07 21:52 | 55.15949 | 11.42607 | 29473 ft | 443 kts | 237° |
| 2026-05-07 21:52 | 55.14283 | 11.38103 | 30018 ft | 441 kts | 237° |
| 2026-05-07 21:53 | 55.12614 | 11.33611 | 30501 ft | 440 kts | 236° |
| 2026-05-07 21:53 | 55.10944 | 11.29136 | 30878 ft | 440 kts | 236° |
| 2026-05-07 21:53 | 55.09269 | 11.24657 | 31222 ft | 441 kts | 236° |
| 2026-05-07 21:53 | 55.07598 | 11.20199 | 31599 ft | 441 kts | 236° |
| 2026-05-07 21:54 | 55.05918 | 11.15720 | 32000 ft | 440 kts | 236° |
| 2026-05-07 21:54 | 55.04242 | 11.11260 | 32377 ft | 440 kts | 236° |
| 2026-05-07 21:54 | 55.02562 | 11.06795 | 32731 ft | 440 kts | 236° |
| 2026-05-07 21:54 | 55.00880 | 11.02330 | 33058 ft | 441 kts | 236° |
| 2026-05-07 21:55 | 54.99191 | 10.97855 | 33374 ft | 442 kts | 236° |
| 2026-05-07 21:55 | 54.97505 | 10.93399 | 33810 ft | 440 kts | 235° |
| 2026-05-07 21:55 | 54.95854 | 10.88934 | 34166 ft | 440 kts | 239° |
| 2026-05-07 21:55 | 54.94552 | 10.84074 | 34170 ft | 445 kts | 249° |
| 2026-05-07 21:56 | 54.93157 | 10.73586 | 34179 ft | 444 kts | 260° |
| 2026-05-07 21:56 | 54.92121 | 10.63097 | 34171 ft | 439 kts | 260° |
| 2026-05-07 21:57 | 54.91051 | 10.52643 | 34170 ft | 440 kts | 259° |
| 2026-05-07 21:57 | 54.89936 | 10.42183 | 34170 ft | 441 kts | 259° |
| 2026-05-07 21:58 | 54.88799 | 10.31698 | 34171 ft | 442 kts | 259° |
| 2026-05-07 21:58 | 54.87651 | 10.21208 | 34174 ft | 442 kts | 259° |
| 2026-05-07 21:59 | 54.86496 | 10.10714 | 34179 ft | 443 kts | 259° |
| 2026-05-07 21:59 | 54.85335 | 10.00227 | 34182 ft | 442 kts | 258° |
| 2026-05-07 22:00 | 54.84162 | 9.89746 | 34160 ft | 443 kts | 258° |
| 2026-05-07 22:00 | 54.82838 | 9.79394 | 34161 ft | 442 kts | 255° |
| 2026-05-07 22:01 | 54.81320 | 9.69063 | 34162 ft | 442 kts | 255° |
| 2026-05-07 22:01 | 54.79800 | 9.58732 | 34157 ft | 442 kts | 255° |
| 2026-05-07 22:02 | 54.78301 | 9.48401 | 34150 ft | 442 kts | 255° |
| 2026-05-07 22:02 | 54.76810 | 9.38087 | 34152 ft | 441 kts | 255° |
| 2026-05-07 22:03 | 54.75312 | 9.27773 | 34150 ft | 441 kts | 255° |
| 2026-05-07 22:03 | 54.73808 | 9.17485 | 34154 ft | 441 kts | 255° |
| 2026-05-07 22:04 | 54.72297 | 9.07221 | 34153 ft | 440 kts | 255° |
| 2026-05-07 22:04 | 54.70777 | 8.96960 | 34155 ft | 440 kts | 255° |
| 2026-05-07 22:05 | 54.69250 | 8.86723 | 34148 ft | 440 kts | 255° |
| 2026-05-07 22:05 | 54.67716 | 8.76502 | 34152 ft | 440 kts | 254° |
| 2026-05-07 22:06 | 54.66181 | 8.66342 | 34153 ft | 440 kts | 254° |
| 2026-05-07 22:06 | 54.64625 | 8.56108 | 34153 ft | 441 kts | 254° |
| 2026-05-07 22:07 | 54.63059 | 8.45871 | 34152 ft | 441 kts | 253° |
| 2026-05-07 22:07 | 54.61484 | 8.35637 | 34150 ft | 442 kts | 253° |
| 2026-05-07 22:08 | 54.59898 | 8.25396 | 34148 ft | 442 kts | 253° |
| 2026-05-07 22:08 | 54.58304 | 8.15166 | 34151 ft | 442 kts | 253° |
| 2026-05-07 22:09 | 54.56700 | 8.04942 | 34154 ft | 442 kts | 253° |
| 2026-05-07 22:09 | 54.55088 | 7.94720 | 34148 ft | 442 kts | 253° |
| 2026-05-07 22:10 | 54.53467 | 7.84508 | 34148 ft | 442 kts | 253° |
| 2026-05-07 22:10 | 54.51840 | 7.74319 | 34148 ft | 441 kts | 253° |
| 2026-05-07 22:11 | 54.50203 | 7.64137 | 34149 ft | 441 kts | 252° |
| 2026-05-07 22:11 | 54.48559 | 7.53964 | 34148 ft | 441 kts | 252° |
| 2026-05-07 22:12 | 54.46916 | 7.43862 | 34148 ft | 441 kts | 252° |
| 2026-05-07 22:12 | 54.45255 | 7.33707 | 34147 ft | 442 kts | 252° |
| 2026-05-07 22:13 | 54.43583 | 7.23547 | 34147 ft | 442 kts | 252° |
| 2026-05-07 22:13 | 54.41903 | 7.13403 | 34148 ft | 442 kts | 252° |
| 2026-05-07 22:14 | 54.40215 | 7.03263 | 34147 ft | 442 kts | 252° |
| 2026-05-07 22:14 | 54.38517 | 6.93126 | 34152 ft | 442 kts | 251° |
| 2026-05-07 22:15 | 54.36812 | 6.83001 | 34145 ft | 442 kts | 251° |
| 2026-05-07 22:15 | 54.35099 | 6.72889 | 34146 ft | 442 kts | 251° |
| 2026-05-07 22:16 | 54.33378 | 6.62791 | 34147 ft | 441 kts | 251° |
| 2026-05-07 22:16 | 54.31648 | 6.52696 | 34159 ft | 441 kts | 251° |
| 2026-05-07 22:17 | 54.29912 | 6.42627 | 34146 ft | 441 kts | 251° |
| 2026-05-07 22:17 | 54.28169 | 6.32574 | 34146 ft | 440 kts | 251° |
| 2026-05-07 22:18 | 54.25545 | 6.17543 | 34144 ft | 439 kts | 250° |
| 2026-05-07 22:19 | 54.23790 | 6.07552 | 34149 ft | 438 kts | 250° |
| 2026-05-07 22:19 | 54.22028 | 5.97586 | 34139 ft | 438 kts | 250° |
| 2026-05-07 22:20 | 54.20261 | 5.87646 | 34139 ft | 437 kts | 250° |
| 2026-05-07 22:20 | 54.18497 | 5.77777 | 34143 ft | 437 kts | 250° |
| 2026-05-07 22:21 | 54.16715 | 5.67862 | 34134 ft | 437 kts | 250° |
| 2026-05-07 22:21 | 54.14927 | 5.57960 | 34138 ft | 436 kts | 250° |
| 2026-05-07 22:22 | 54.13131 | 5.48078 | 34143 ft | 436 kts | 250° |
| 2026-05-07 22:22 | 54.11330 | 5.38218 | 34143 ft | 435 kts | 250° |
| 2026-05-07 22:23 | 54.09525 | 5.28383 | 34137 ft | 434 kts | 250° |
| 2026-05-07 22:23 | 54.07720 | 5.18603 | 34130 ft | 432 kts | 250° |
| 2026-05-07 22:24 | 54.05914 | 5.08868 | 34135 ft | 431 kts | 250° |
| 2026-05-07 22:24 | 54.04104 | 4.99161 | 34139 ft | 430 kts | 250° |
| 2026-05-07 22:25 | 54.02287 | 4.89467 | 34130 ft | 430 kts | 250° |
| 2026-05-07 22:25 | 54.00464 | 4.79794 | 34136 ft | 430 kts | 249° |
| 2026-05-07 22:26 | 53.98632 | 4.70119 | 34140 ft | 430 kts | 249° |
| 2026-05-07 22:26 | 53.96789 | 4.60433 | 34141 ft | 431 kts | 249° |
| 2026-05-07 22:27 | 53.94935 | 4.50744 | 34141 ft | 432 kts | 249° |
| 2026-05-07 22:27 | 53.93073 | 4.41056 | 34142 ft | 432 kts | 249° |
| 2026-05-07 22:28 | 53.91199 | 4.31355 | 34167 ft | 432 kts | 250° |
| 2026-05-07 22:28 | 53.89325 | 4.21695 | 34133 ft | 430 kts | 250° |
| 2026-05-07 22:29 | 53.87458 | 4.12114 | 34131 ft | 426 kts | 249° |
| 2026-05-07 22:29 | 53.85599 | 4.02627 | 34125 ft | 422 kts | 249° |
| 2026-05-07 22:30 | 53.83040 | 3.93840 | 34143 ft | 414 kts | 230° |
| 2026-05-07 22:30 | 53.78950 | 3.87087 | 34148 ft | 411 kts | 217° |
| 2026-05-07 22:31 | 53.74486 | 3.81044 | 34138 ft | 412 kts | 217° |
| 2026-05-07 22:31 | 53.70014 | 3.74965 | 34136 ft | 414 kts | 217° |
| 2026-05-07 22:32 | 53.65541 | 3.68827 | 34151 ft | 415 kts | 218° |
| 2026-05-07 22:32 | 53.61093 | 3.62712 | 34154 ft | 415 kts | 218° |
| 2026-05-07 22:33 | 53.56623 | 3.56581 | 34137 ft | 414 kts | 218° |
| 2026-05-07 22:33 | 53.52166 | 3.50486 | 34138 ft | 412 kts | 218° |
| 2026-05-07 22:34 | 53.47727 | 3.44430 | 34144 ft | 410 kts | 218° |
| 2026-05-07 22:34 | 53.43305 | 3.38414 | 34144 ft | 408 kts | 218° |
| 2026-05-07 22:35 | 53.38745 | 3.32785 | 34138 ft | 407 kts | 207° |
| 2026-05-07 22:35 | 53.33691 | 3.28557 | 34119 ft | 406 kts | 206° |
| 2026-05-07 22:36 | 53.28631 | 3.24326 | 34119 ft | 407 kts | 206° |
| 2026-05-07 22:36 | 53.23586 | 3.20043 | 34118 ft | 407 kts | 206° |
| 2026-05-07 22:37 | 53.18529 | 3.15756 | 34113 ft | 408 kts | 207° |
| 2026-05-07 22:37 | 53.13465 | 3.11482 | 34109 ft | 408 kts | 207° |
| 2026-05-07 22:38 | 53.08389 | 3.07209 | 34115 ft | 409 kts | 207° |
| 2026-05-07 22:38 | 53.03310 | 3.02944 | 34126 ft | 409 kts | 207° |
| 2026-05-07 22:39 | 52.98267 | 2.98715 | 34045 ft | 399 kts | 207° |
| 2026-05-07 22:39 | 52.95810 | 2.96656 | 33747 ft | 391 kts | 209° |
| 2026-05-07 22:39 | 52.93532 | 2.94299 | 33406 ft | 384 kts | 219° |
| 2026-05-07 22:39 | 52.91541 | 2.91409 | 33119 ft | 377 kts | 223° |
| 2026-05-07 22:40 | 52.89617 | 2.88474 | 32743 ft | 374 kts | 223° |
| 2026-05-07 22:40 | 52.87712 | 2.85571 | 32394 ft | 371 kts | 223° |
| 2026-05-07 22:40 | 52.85817 | 2.82694 | 32035 ft | 368 kts | 223° |
| 2026-05-07 22:40 | 52.83933 | 2.79845 | 31683 ft | 365 kts | 223° |
| 2026-05-07 22:41 | 52.82692 | 2.77975 | 31451 ft | 364 kts | 223° |
| 2026-05-07 22:41 | 52.80827 | 2.75171 | 31110 ft | 361 kts | 223° |
| 2026-05-07 22:41 | 52.78976 | 2.72396 | 30772 ft | 359 kts | 223° |
| 2026-05-07 22:41 | 52.77133 | 2.69637 | 30435 ft | 356 kts | 223° |
| 2026-05-07 22:42 | 52.75300 | 2.66898 | 30096 ft | 354 kts | 223° |
| 2026-05-07 22:42 | 52.73482 | 2.64182 | 29687 ft | 352 kts | 223° |
| 2026-05-07 22:42 | 52.71680 | 2.61496 | 29362 ft | 347 kts | 223° |
| 2026-05-07 22:42 | 52.69895 | 2.58837 | 29007 ft | 344 kts | 223° |
| 2026-05-07 22:43 | 52.68130 | 2.56211 | 28659 ft | 341 kts | 223° |
| 2026-05-07 22:43 | 52.66379 | 2.53608 | 28327 ft | 337 kts | 223° |
| 2026-05-07 22:43 | 52.64646 | 2.51034 | 27969 ft | 335 kts | 223° |
| 2026-05-07 22:43 | 52.62923 | 2.48479 | 27640 ft | 332 kts | 223° |
| 2026-05-07 22:44 | 52.61214 | 2.45946 | 27295 ft | 329 kts | 223° |
| 2026-05-07 22:44 | 52.59517 | 2.43434 | 26960 ft | 327 kts | 223° |
| 2026-05-07 22:44 | 52.57831 | 2.40940 | 26629 ft | 325 kts | 223° |
| 2026-05-07 22:44 | 52.56159 | 2.38466 | 26301 ft | 322 kts | 223° |
| 2026-05-07 22:45 | 52.54496 | 2.36012 | 25977 ft | 320 kts | 223° |
| 2026-05-07 22:45 | 52.52841 | 2.33577 | 25661 ft | 319 kts | 223° |
| 2026-05-07 22:45 | 52.51196 | 2.31157 | 25339 ft | 317 kts | 223° |
| 2026-05-07 22:45 | 52.49558 | 2.28753 | 25013 ft | 315 kts | 223° |
| 2026-05-07 22:46 | 52.47928 | 2.26363 | 24695 ft | 313 kts | 223° |
| 2026-05-07 22:46 | 52.46304 | 2.23984 | 24384 ft | 313 kts | 223° |
| 2026-05-07 22:46 | 52.44678 | 2.21602 | 24067 ft | 314 kts | 223° |
| 2026-05-07 22:46 | 52.43046 | 2.19211 | 23753 ft | 317 kts | 223° |
| 2026-05-07 22:47 | 52.41383 | 2.16775 | 23391 ft | 325 kts | 223° |
| 2026-05-07 22:47 | 52.39686 | 2.14293 | 23020 ft | 328 kts | 223° |
| 2026-05-07 22:47 | 52.37991 | 2.11822 | 22652 ft | 325 kts | 223° |
| 2026-05-07 22:47 | 52.36306 | 2.09370 | 22309 ft | 323 kts | 223° |
| 2026-05-07 22:48 | 52.34791 | 2.06702 | 21935 ft | 319 kts | 239° |
| 2026-05-07 22:48 | 52.33836 | 2.03452 | 21627 ft | 317 kts | 246° |
| 2026-05-07 22:48 | 52.32975 | 2.00119 | 21226 ft | 319 kts | 247° |
| 2026-05-07 22:48 | 52.32133 | 1.96821 | 20849 ft | 318 kts | 246° |
| 2026-05-07 22:49 | 52.31275 | 1.93492 | 20470 ft | 318 kts | 246° |
| 2026-05-07 22:49 | 52.30408 | 1.90172 | 20097 ft | 317 kts | 246° |
| 2026-05-07 22:49 | 52.29536 | 1.86866 | 19720 ft | 317 kts | 246° |
| 2026-05-07 22:49 | 52.28662 | 1.83568 | 19349 ft | 316 kts | 245° |
| 2026-05-07 22:50 | 52.27788 | 1.80276 | 18990 ft | 316 kts | 245° |
| 2026-05-07 22:50 | 52.26913 | 1.76990 | 18597 ft | 316 kts | 245° |
| 2026-05-07 22:50 | 52.26036 | 1.73705 | 18202 ft | 315 kts | 245° |
| 2026-05-07 22:50 | 52.25162 | 1.70428 | 17792 ft | 315 kts | 245° |
| 2026-05-07 22:51 | 52.24288 | 1.67155 | 17393 ft | 314 kts | 245° |
| 2026-05-07 22:51 | 52.23418 | 1.63898 | 17013 ft | 313 kts | 245° |
| 2026-05-07 22:51 | 52.22550 | 1.60653 | 16651 ft | 311 kts | 245° |
| 2026-05-07 22:51 | 52.21685 | 1.57423 | 16280 ft | 310 kts | 245° |
| 2026-05-07 22:52 | 52.20821 | 1.54201 | 15913 ft | 309 kts | 245° |
| 2026-05-07 22:52 | 52.19961 | 1.50996 | 15551 ft | 308 kts | 245° |
| 2026-05-07 22:52 | 52.19103 | 1.47803 | 15191 ft | 307 kts | 245° |
| 2026-05-07 22:52 | 52.18245 | 1.44614 | 14842 ft | 307 kts | 245° |
| 2026-05-07 22:53 | 52.17389 | 1.41435 | 14470 ft | 306 kts | 245° |
| 2026-05-07 22:53 | 52.16532 | 1.38259 | 14110 ft | 306 kts | 245° |
| 2026-05-07 22:53 | 52.15678 | 1.35094 | 13732 ft | 305 kts | 245° |
| 2026-05-07 22:53 | 52.14824 | 1.31933 | 13334 ft | 305 kts | 245° |
| 2026-05-07 22:54 | 52.13971 | 1.28782 | 12956 ft | 303 kts | 245° |
| 2026-05-07 22:54 | 52.13120 | 1.25653 | 12586 ft | 302 kts | 245° |
| 2026-05-07 22:54 | 52.12272 | 1.22536 | 12228 ft | 301 kts | 245° |
| 2026-05-07 22:54 | 52.11492 | 1.19395 | 11961 ft | 297 kts | 250° |
| 2026-05-07 22:55 | 52.10929 | 1.16203 | 11752 ft | 291 kts | 253° |
| 2026-05-07 22:55 | 52.10432 | 1.13043 | 11545 ft | 286 kts | 254° |
| 2026-05-07 22:55 | 52.09955 | 1.09978 | 11345 ft | 280 kts | 254° |
| 2026-05-07 22:55 | 52.09472 | 1.06926 | 11159 ft | 278 kts | 254° |
| 2026-05-07 22:56 | 52.08984 | 1.03897 | 10955 ft | 277 kts | 253° |
| 2026-05-07 22:56 | 52.08485 | 1.00835 | 10770 ft | 276 kts | 253° |
| 2026-05-07 22:56 | 52.07996 | 0.97869 | 10585 ft | 276 kts | 254° |
| 2026-05-07 22:56 | 52.07498 | 0.94865 | 10395 ft | 275 kts | 253° |
| 2026-05-07 22:57 | 52.06996 | 0.91859 | 10208 ft | 274 kts | 253° |
| 2026-05-07 22:57 | 52.06502 | 0.88902 | 10007 ft | 270 kts | 253° |
| 2026-05-07 22:57 | 52.06011 | 0.85979 | 9799 ft | 267 kts | 254° |
| 2026-05-07 22:57 | 52.05522 | 0.83066 | 9605 ft | 267 kts | 254° |
| 2026-05-07 22:58 | 52.05030 | 0.80150 | 9413 ft | 268 kts | 253° |
| 2026-05-07 22:58 | 52.04538 | 0.77232 | 9211 ft | 267 kts | 253° |
| 2026-05-07 22:58 | 52.04046 | 0.74321 | 9019 ft | 267 kts | 253° |
| 2026-05-07 22:58 | 52.03555 | 0.71415 | 8812 ft | 266 kts | 253° |
| 2026-05-07 22:59 | 52.03065 | 0.68525 | 8635 ft | 264 kts | 254° |
| 2026-05-07 22:59 | 52.02580 | 0.65674 | 8437 ft | 259 kts | 254° |
| 2026-05-07 22:59 | 52.02103 | 0.62879 | 8258 ft | 255 kts | 254° |
| 2026-05-07 22:59 | 52.01636 | 0.60136 | 8052 ft | 251 kts | 255° |
| 2026-05-07 23:00 | 52.01394 | 0.57303 | 7658 ft | 255 kts | 266° |
| 2026-05-07 23:00 | 52.01279 | 0.54400 | 7233 ft | 260 kts | 265° |
| 2026-05-07 23:00 | 52.01139 | 0.51440 | 6803 ft | 266 kts | 265° |
| 2026-05-07 23:00 | 52.00983 | 0.48398 | 6274 ft | 274 kts | 265° |
| 2026-05-07 23:01 | 52.00832 | 0.45346 | 6089 ft | 268 kts | 265° |
| 2026-05-07 23:01 | 52.00715 | 0.42373 | 5998 ft | 259 kts | 266° |
| 2026-05-07 23:01 | 52.00607 | 0.39521 | 5978 ft | 247 kts | 266° |
| 2026-05-07 23:01 | 52.00499 | 0.36783 | 5982 ft | 241 kts | 265° |
| 2026-05-07 23:02 | 52.00390 | 0.34078 | 5988 ft | 239 kts | 265° |
| 2026-05-07 23:02 | 52.00280 | 0.31385 | 5992 ft | 239 kts | 265° |
| 2026-05-07 23:02 | 52.00156 | 0.28695 | 5995 ft | 239 kts | 260° |
| 2026-05-07 23:02 | 51.99449 | 0.26312 | 5995 ft | 236 kts | 224° |
| 2026-05-07 23:03 | 51.98242 | 0.24507 | 5998 ft | 237 kts | 222° |
| 2026-05-07 23:03 | 51.97034 | 0.22686 | 5995 ft | 238 kts | 222° |
| 2026-05-07 23:03 | 51.95795 | 0.20820 | 5679 ft | 248 kts | 221° |
| 2026-05-07 23:03 | 51.94524 | 0.18905 | 5337 ft | 251 kts | 221° |
| 2026-05-07 23:04 | 51.93248 | 0.16979 | 4971 ft | 249 kts | 221° |
| 2026-05-07 23:04 | 51.91988 | 0.15075 | 4615 ft | 246 kts | 221° |
| 2026-05-07 23:04 | 51.90750 | 0.13201 | 4269 ft | 242 kts | 221° |
| 2026-05-07 23:04 | 51.89533 | 0.11362 | 3934 ft | 237 kts | 221° |
| 2026-05-07 23:05 | 51.88336 | 0.09556 | 3608 ft | 233 kts | 221° |
| 2026-05-07 23:05 | 51.87158 | 0.07782 | 3287 ft | 229 kts | 220° |
| 2026-05-07 23:05 | 51.86000 | 0.06037 | 3007 ft | 223 kts | 221° |
| 2026-05-07 23:05 | 51.84900 | 0.04359 | 2972 ft | 215 kts | 221° |
| 2026-05-07 23:06 | 51.83809 | 0.02694 | 2935 ft | 218 kts | 220° |
| 2026-05-07 23:06 | 51.82694 | 0.00997 | 2901 ft | 222 kts | 220° |
| 2026-05-07 23:06 | 51.81563 | -0.00723 | 2848 ft | 223 kts | 221° |
| 2026-05-07 23:06 | 51.80401 | -0.02297 | 2781 ft | 221 kts | 205° |
| 2026-05-07 23:07 | 51.78929 | -0.02709 | 2759 ft | 215 kts | 169° |
| 2026-05-07 23:07 | 51.77592 | -0.01845 | 2706 ft | 203 kts | 144° |
| 2026-05-07 23:07 | 51.76585 | -0.00294 | 2664 ft | 201 kts | 124° |
| 2026-05-07 23:07 | 51.76083 | 0.01819 | 2545 ft | 205 kts | 97° |
| 2026-05-07 23:08 | 51.76222 | 0.04100 | 2501 ft | 208 kts | 70° |
| 2026-05-07 23:08 | 51.77069 | 0.05949 | 2512 ft | 202 kts | 48° |
| 2026-05-07 23:08 | 51.77997 | 0.07546 | 2495 ft | 188 kts | 49° |
| 2026-05-07 23:08 | 51.78889 | 0.08981 | 2479 ft | 173 kts | 46° |
| 2026-05-07 23:09 | 51.79766 | 0.10322 | 2467 ft | 175 kts | 46° |
| 2026-05-07 23:09 | 51.80657 | 0.11667 | 2305 ft | 175 kts | 45° |
| 2026-05-07 23:09 | 51.81555 | 0.13021 | 2056 ft | 178 kts | 46° |
| 2026-05-07 23:09 | 51.82464 | 0.14391 | 1823 ft | 180 kts | 46° |
| 2026-05-07 23:10 | 51.83377 | 0.15767 | 1564 ft | 178 kts | 45° |
| 2026-05-07 23:10 | 51.84275 | 0.17119 | 1329 ft | 173 kts | 45° |
| 2026-05-07 23:10 | 51.85112 | 0.18379 | 1085 ft | 158 kts | 45° |
| 2026-05-07 23:10 | 51.85886 | 0.19543 | 861 ft | 149 kts | 44° |
| 2026-05-07 23:11 | 51.86648 | 0.20673 | 675 ft | 148 kts | 43° |
| 2026-05-07 23:11 | 51.87386 | 0.21778 | 455 ft | 141 kts | 44° |
| 2026-05-07 23:11 | 51.88079 | 0.22840 | 332 ft | 130 kts | 43° |
| 2026-05-07 23:11 | 51.88642 | 0.23692 | 339 ft | 90 kts | 43° |
| 2026-05-07 23:12 | 51.88987 | 0.24215 | 354 ft | 50 kts | 45° |
| 2026-05-07 23:12 | 51.89117 | 0.24604 | 355 ft | 33 kts | 68° |
| 2026-05-07 23:12 | 51.89158 | 0.24769 | 347 ft | 0 kts | 69° |
| 2026-05-07 23:15 | 51.89238 | 0.25959 | 358 ft | 0 kts | 43° |